createdAt,value
2023-05-16T00:01:47.408Z,4.50
2023-05-16T00:04:33.246Z,5.40
2023-05-16T00:07:19.183Z,5.25
2023-05-16T00:10:05.554Z,4.60
2023-05-16T00:12:51.609Z,4.65
2023-05-16T00:15:38.577Z,4.03
2023-05-16T00:18:23.852Z,4.43
2023-05-16T00:21:09.373Z,4.13
2023-05-16T00:23:54.760Z,3.83
2023-05-16T00:26:40.133Z,3.85
2023-05-16T00:29:26.332Z,3.83
2023-05-16T00:32:11.995Z,4.40
2023-05-16T00:34:58.683Z,3.78
2023-05-16T00:37:44.125Z,4.50
2023-05-16T00:40:29.565Z,4.18
2023-05-16T00:43:14.865Z,4.57
2023-05-16T00:46:01.122Z,3.65
2023-05-16T00:48:47.399Z,3.92
2023-05-16T00:51:32.888Z,3.80
2023-05-16T00:54:20.570Z,3.47
2023-05-16T00:57:06.878Z,3.72
2023-05-16T00:59:52.613Z,3.97
2023-05-16T01:02:38.512Z,3.50
2023-05-16T01:05:24.076Z,4.45
2023-05-16T01:08:10.286Z,4.03
2023-05-16T01:11:43.216Z,4.00
2023-05-16T01:14:44.680Z,4.20
2023-05-16T01:17:54.494Z,4.43
2023-05-16T01:20:52.143Z,4.17
2023-05-16T01:23:59.248Z,3.70
2023-05-16T01:26:46.769Z,3.75
2023-05-16T01:29:32.470Z,3.70
2023-05-16T01:32:18.222Z,3.42
2023-05-16T01:35:04.552Z,3.80
2023-05-16T01:37:59.753Z,3.58
2023-05-16T01:40:59.690Z,3.58
2023-05-16T01:43:51.377Z,3.67
2023-05-16T01:46:40.758Z,3.80
2023-05-16T01:49:51.232Z,3.65
2023-05-16T01:52:49.295Z,4.22
2023-05-16T01:55:47.916Z,3.53
2023-05-16T01:58:36.828Z,4.60
2023-05-16T02:01:23.074Z,4.45
2023-05-16T02:04:09.386Z,4.40
2023-05-16T02:06:55.571Z,4.22
2023-05-16T02:09:41.348Z,4.18
2023-05-16T02:12:27.079Z,4.05
2023-05-16T02:15:14.841Z,4.00
2023-05-16T02:18:01.132Z,4.03
2023-05-16T02:20:46.360Z,3.92
2023-05-16T02:23:32.008Z,4.22
2023-05-16T02:26:18.737Z,4.50
2023-05-16T02:29:04.063Z,4.35
2023-05-16T02:31:49.472Z,5.18
2023-05-16T02:34:34.715Z,3.97
2023-05-16T02:37:20.772Z,4.28
2023-05-16T02:40:09.298Z,3.75
2023-05-16T02:42:55.117Z,4.18
2023-05-16T02:45:40.928Z,4.10
2023-05-16T02:48:26.891Z,3.88
2023-05-16T02:51:12.356Z,4.55
2023-05-16T02:53:59.608Z,4.00
2023-05-16T02:56:45.123Z,3.78
2023-05-16T02:59:30.475Z,4.20
2023-05-16T03:02:15.870Z,3.80
2023-05-16T03:05:01.144Z,4.28
2023-05-16T03:07:46.719Z,3.83
2023-05-16T03:10:32.067Z,4.50
2023-05-16T03:13:17.490Z,4.25
2023-05-16T03:16:03.419Z,4.57
2023-05-16T03:18:48.816Z,4.13
2023-05-16T03:21:34.229Z,4.03
2023-05-16T03:24:21.777Z,3.67
2023-05-16T03:27:08.084Z,3.58
2023-05-16T03:29:53.634Z,3.80
2023-05-16T03:32:38.992Z,4.28
2023-05-16T03:35:24.745Z,4.25
2023-05-16T03:38:10.296Z,4.20
2023-05-16T03:40:55.885Z,4.00
2023-05-16T03:43:42.715Z,4.20
2023-05-16T03:46:28.358Z,3.88
2023-05-16T03:49:13.603Z,3.92
2023-05-16T03:51:59.004Z,3.78
2023-05-16T03:54:44.553Z,3.95
2023-05-16T03:58:03.821Z,4.18
2023-05-16T04:00:52.146Z,3.78
2023-05-16T04:03:38.533Z,4.05
2023-05-16T04:06:24.023Z,4.30
2023-05-16T04:09:09.650Z,4.70
2023-05-16T04:11:59.136Z,4.10
2023-05-16T04:14:44.717Z,4.63
2023-05-16T04:17:30.163Z,4.50
2023-05-16T04:20:15.612Z,3.97
2023-05-16T04:23:01.072Z,3.53
2023-05-16T04:25:46.665Z,4.22
2023-05-16T04:28:32.609Z,4.18
2023-05-16T04:31:18.255Z,4.57
2023-05-16T04:34:03.846Z,4.68
2023-05-16T04:36:49.458Z,5.32
2023-05-16T04:39:36.529Z,4.82
2023-05-16T04:42:22.242Z,4.53
2023-05-16T04:45:11.392Z,4.38
2023-05-16T04:47:56.851Z,4.95
2023-05-16T04:50:44.371Z,4.78
2023-05-16T04:53:29.980Z,5.65
2023-05-16T04:56:15.723Z,5.72
2023-05-16T04:59:02.430Z,4.25
2023-05-16T05:01:48.091Z,5.18
2023-05-16T05:04:36.860Z,4.97
2023-05-16T05:07:23.595Z,5.55
2023-05-16T05:10:09.618Z,6.53
2023-05-16T05:12:55.057Z,6.00
2023-05-16T05:15:40.656Z,4.72
2023-05-16T05:18:26.841Z,5.80
2023-05-16T05:21:12.662Z,6.00
2023-05-16T05:23:59.065Z,6.53
2023-05-16T05:26:44.881Z,6.95
2023-05-16T05:29:30.916Z,5.53
2023-05-16T05:32:16.638Z,5.60
2023-05-16T05:35:03.219Z,4.15
2023-05-16T05:37:51.110Z,4.07
2023-05-16T05:40:40.184Z,3.42
2023-05-16T05:43:28.271Z,3.08
2023-05-16T05:46:13.914Z,2.70
2023-05-16T05:48:59.906Z,1.70
2023-05-16T05:51:45.417Z,1.75
2023-05-16T05:54:30.799Z,1.42
2023-05-16T05:57:16.405Z,1.70
2023-05-16T06:00:01.676Z,1.70
2023-05-16T06:02:53.172Z,1.50
2023-05-16T06:05:39.309Z,2.00
2023-05-16T06:08:24.505Z,1.55
2023-05-16T06:11:10.131Z,1.90
2023-05-16T06:13:55.574Z,1.65
2023-05-16T06:16:40.943Z,1.40
2023-05-16T06:19:26.532Z,2.90
2023-05-16T06:22:12.216Z,1.73
2023-05-16T06:24:57.725Z,1.83
2023-05-16T06:27:43.180Z,2.38
2023-05-16T06:30:28.485Z,2.35
2023-05-16T06:33:15.282Z,3.25
2023-05-16T06:36:00.985Z,2.65
2023-05-16T06:38:46.594Z,1.90
2023-05-16T06:41:36.629Z,2.22
2023-05-16T06:44:23.848Z,2.10
2023-05-16T06:47:09.595Z,2.15
2023-05-16T06:49:55.374Z,2.17
2023-05-16T06:52:41.881Z,2.10
2023-05-16T06:55:27.658Z,2.38
2023-05-16T06:58:13.352Z,2.22
2023-05-16T07:00:58.720Z,2.50
2023-05-16T07:03:44.137Z,2.20
2023-05-16T07:06:29.813Z,2.17
2023-05-16T07:09:15.590Z,2.50
2023-05-16T07:12:01.364Z,2.40
2023-05-16T07:14:46.963Z,2.50
2023-05-16T07:17:32.624Z,2.92
2023-05-16T07:20:18.069Z,3.38
2023-05-16T07:23:03.300Z,2.70
2023-05-16T07:25:48.921Z,2.70
2023-05-16T07:28:34.620Z,2.45
2023-05-16T07:31:20.296Z,2.55
2023-05-16T07:34:06.554Z,2.65
2023-05-16T07:36:52.303Z,2.40
2023-05-16T07:39:37.961Z,2.63
2023-05-16T07:42:23.650Z,2.50
2023-05-16T07:45:09.587Z,2.38
2023-05-16T07:47:55.322Z,2.45
2023-05-16T07:50:40.663Z,2.97
2023-05-16T07:53:26.110Z,2.60
2023-05-16T07:56:11.455Z,2.65
2023-05-16T07:58:56.910Z,2.22
2023-05-16T08:01:42.629Z,2.70
2023-05-16T08:04:28.467Z,2.78
2023-05-16T08:07:14.695Z,3.05
2023-05-16T08:10:00.274Z,2.97
2023-05-16T08:12:46.401Z,3.45
2023-05-16T08:15:32.075Z,2.80
2023-05-16T08:18:18.759Z,3.08
2023-05-16T08:21:05.688Z,2.88
2023-05-16T08:23:51.683Z,2.72
2023-05-16T08:26:37.487Z,2.70
2023-05-16T08:29:23.128Z,2.80
2023-05-16T08:32:10.147Z,2.97
2023-05-16T08:34:55.965Z,2.42
2023-05-16T08:37:41.643Z,2.72
2023-05-16T08:40:28.252Z,2.42
2023-05-16T08:43:14.077Z,2.58
2023-05-16T08:45:59.760Z,2.70
2023-05-16T08:48:47.163Z,2.53
2023-05-16T08:51:36.596Z,3.00
2023-05-16T08:54:22.747Z,2.75
2023-05-16T08:57:09.465Z,2.45
2023-05-16T08:59:59.230Z,2.75
2023-05-16T09:02:45.869Z,2.60
2023-05-16T09:05:32.376Z,2.00
2023-05-16T09:08:18.034Z,2.33
2023-05-16T09:11:03.888Z,2.30
2023-05-16T09:13:49.659Z,2.60
2023-05-16T09:16:34.889Z,2.20
2023-05-16T09:19:23.247Z,2.13
2023-05-16T09:22:16.380Z,2.10
2023-05-16T09:25:01.727Z,2.40
2023-05-16T09:28:10.877Z,1.90
2023-05-16T09:30:59.301Z,2.58
2023-05-16T09:33:44.886Z,2.30
2023-05-16T09:36:32.221Z,2.40
2023-05-16T09:39:17.706Z,1.92
2023-05-16T09:42:03.923Z,1.98
2023-05-16T09:44:56.190Z,2.50
2023-05-16T09:47:46.668Z,2.20
2023-05-16T09:50:36.828Z,2.13
2023-05-16T09:53:33.613Z,2.17
2023-05-16T09:56:19.693Z,2.40
2023-05-16T09:59:11.372Z,3.80
2023-05-16T10:02:00.953Z,2.05
2023-05-16T10:04:46.569Z,2.17
2023-05-16T10:07:34.088Z,2.03
2023-05-16T10:10:20.518Z,2.50
2023-05-16T10:13:08.410Z,1.73
2023-05-16T10:15:56.589Z,1.98
2023-05-16T10:18:43.500Z,2.13
2023-05-16T10:21:29.970Z,1.98
2023-05-16T10:24:22.326Z,1.88
2023-05-16T10:27:09.498Z,2.13
2023-05-16T10:29:55.671Z,2.17
2023-05-16T10:32:42.986Z,2.13
2023-05-16T10:35:29.001Z,2.03
2023-05-16T10:38:17.860Z,1.83
2023-05-16T10:41:03.769Z,2.10
2023-05-16T10:43:59.105Z,1.90
2023-05-16T10:46:47.276Z,1.75
2023-05-16T10:49:32.872Z,2.00
2023-05-16T10:52:18.466Z,1.55
2023-05-16T10:55:04.900Z,2.00
2023-05-16T10:57:50.633Z,1.95
2023-05-16T11:00:36.238Z,1.67
2023-05-16T11:03:28.711Z,1.90
2023-05-16T11:06:22.308Z,2.03
2023-05-16T11:09:13.333Z,2.15
2023-05-16T11:12:00.299Z,2.17
2023-05-16T11:14:51.800Z,1.95
2023-05-16T11:17:42.818Z,2.22
2023-05-16T11:20:35.612Z,2.15
2023-05-16T11:23:25.984Z,2.45
2023-05-16T11:26:11.820Z,1.70
2023-05-16T11:28:59.466Z,2.05
2023-05-16T11:31:44.921Z,1.73
2023-05-16T11:34:31.310Z,1.75
2023-05-16T11:37:17.849Z,2.22
2023-05-16T11:40:04.508Z,1.90
2023-05-16T11:42:50.306Z,1.67
2023-05-16T11:45:36.072Z,1.77
2023-05-16T11:48:35.743Z,1.70
2023-05-16T11:51:23.157Z,1.67
2023-05-16T11:54:10.635Z,1.45
2023-05-16T11:56:56.679Z,1.30
2023-05-16T11:59:42.324Z,3.03
2023-05-16T12:02:30.384Z,1.65
2023-05-16T12:05:20.815Z,1.50
2023-05-16T12:08:06.769Z,1.42
2023-05-16T12:10:53.675Z,1.40
2023-05-16T12:13:39.102Z,1.45
2023-05-16T12:16:24.827Z,1.60
2023-05-16T12:19:10.809Z,1.35
2023-05-16T12:21:56.361Z,1.15
2023-05-16T12:24:41.767Z,1.17
2023-05-16T12:27:27.956Z,1.65
2023-05-16T12:30:13.993Z,1.60
2023-05-16T12:33:06.989Z,1.83
2023-05-16T12:35:55.356Z,1.55
2023-05-16T12:38:40.596Z,2.13
2023-05-16T12:41:26.302Z,1.95
2023-05-16T12:44:19.510Z,1.98
2023-05-16T12:47:12.395Z,2.10
2023-05-16T12:49:57.912Z,1.90
2023-05-16T12:52:54.341Z,2.15
2023-05-16T12:55:41.137Z,1.42
2023-05-16T12:58:27.523Z,1.40
2023-05-16T13:01:15.739Z,1.60
2023-05-16T13:04:01.469Z,1.60
2023-05-16T13:06:58.259Z,1.70
2023-05-16T13:09:44.272Z,1.58
2023-05-16T13:12:30.078Z,1.50
2023-05-16T13:15:15.845Z,1.55
2023-05-16T13:18:01.195Z,1.42
2023-05-16T13:20:46.570Z,1.75
2023-05-16T13:23:33.083Z,1.67
2023-05-16T13:26:18.398Z,1.50
2023-05-16T13:29:03.858Z,2.13
2023-05-16T13:31:49.331Z,1.60
2023-05-16T13:34:35.372Z,1.77
2023-05-16T13:37:21.349Z,1.80
2023-05-16T13:40:10.493Z,2.40
2023-05-16T13:42:57.068Z,2.03
2023-05-16T13:45:43.356Z,1.80
2023-05-16T13:48:28.947Z,2.25
2023-05-16T13:51:14.873Z,2.22
2023-05-16T13:54:00.436Z,2.40
2023-05-16T13:56:45.937Z,2.30
2023-05-16T13:59:56.782Z,2.13
2023-05-16T14:02:36.953Z,2.00
2023-05-16T14:05:22.679Z,2.30
2023-05-16T14:08:08.306Z,2.13
2023-05-16T14:10:53.857Z,2.63
2023-05-16T14:13:40.403Z,2.38
2023-05-16T14:16:27.245Z,2.50
2023-05-16T14:19:13.587Z,2.28
2023-05-16T14:22:00.174Z,3.35
2023-05-16T14:24:45.783Z,3.10
2023-05-16T14:27:31.270Z,2.55
2023-05-16T14:30:17.354Z,2.80
2023-05-16T14:33:03.560Z,2.25
2023-05-16T14:35:50.218Z,3.75
2023-05-16T14:38:37.456Z,2.55
2023-05-16T14:41:23.015Z,2.38
2023-05-16T14:44:08.558Z,2.70
2023-05-16T14:46:54.026Z,2.75
2023-05-16T14:49:40.478Z,2.30
2023-05-16T14:52:26.521Z,2.05
2023-05-16T14:55:12.538Z,2.50
2023-05-16T14:58:00.108Z,2.10
2023-05-16T15:00:46.260Z,2.42
2023-05-16T15:03:43.364Z,2.53
2023-05-16T15:06:37.323Z,2.90
2023-05-16T15:09:23.295Z,2.45
2023-05-16T15:12:08.932Z,3.00
2023-05-16T15:14:54.462Z,2.53
2023-05-16T15:17:41.911Z,2.40
2023-05-16T15:20:28.099Z,3.13
2023-05-16T15:23:14.002Z,2.90
2023-05-16T15:25:59.648Z,2.25
2023-05-16T15:28:45.128Z,2.35
2023-05-16T15:31:32.196Z,2.70
2023-05-16T15:34:17.999Z,2.45
2023-05-16T15:37:03.908Z,3.17
2023-05-16T15:39:49.408Z,2.95
2023-05-16T15:42:35.444Z,2.70
2023-05-16T15:45:21.094Z,2.58
2023-05-16T15:48:07.073Z,3.05
2023-05-16T15:50:53.078Z,2.65
2023-05-16T15:53:38.599Z,2.42
2023-05-16T15:56:24.155Z,2.63
2023-05-16T15:59:09.586Z,2.63
2023-05-16T16:01:55.107Z,2.70
2023-05-16T16:04:41.379Z,2.72
2023-05-16T16:07:26.896Z,2.50
2023-05-16T16:10:12.358Z,4.22
2023-05-16T16:13:05.016Z,2.60
2023-05-16T16:15:51.264Z,2.63
2023-05-16T16:18:36.900Z,3.22
2023-05-16T16:21:23.749Z,2.58
2023-05-16T16:24:09.063Z,2.75
2023-05-16T16:26:54.794Z,3.38
2023-05-16T16:29:40.454Z,2.83
2023-05-16T16:32:26.274Z,2.83
2023-05-16T16:35:15.313Z,2.67
2023-05-16T16:38:06.328Z,2.50
2023-05-16T16:40:53.091Z,2.70
2023-05-16T16:43:40.112Z,2.88
2023-05-16T16:46:25.760Z,2.65
2023-05-16T16:49:12.025Z,2.88
2023-05-16T16:51:58.180Z,3.00
2023-05-16T16:54:43.777Z,2.67
2023-05-16T16:57:29.139Z,2.83
2023-05-16T17:00:15.475Z,3.03
2023-05-16T17:03:03.890Z,2.72
2023-05-16T17:05:49.545Z,3.90
2023-05-16T17:08:34.961Z,2.95
2023-05-16T17:11:23.447Z,3.35
2023-05-16T17:14:10.709Z,3.15
2023-05-16T17:16:56.794Z,3.00
2023-05-16T17:19:42.826Z,3.08
2023-05-16T17:22:28.410Z,3.22
2023-05-16T17:25:13.646Z,4.00
2023-05-16T17:27:59.337Z,4.70
2023-05-16T17:30:45.039Z,4.40
2023-05-16T17:33:30.602Z,8.68
2023-05-16T17:36:16.127Z,6.63
2023-05-16T17:39:01.791Z,4.18
2023-05-16T17:41:47.393Z,3.45
2023-05-16T17:44:33.425Z,3.60
2023-05-16T17:47:19.744Z,4.28
2023-05-16T17:50:08.771Z,3.58
2023-05-16T17:52:55.403Z,3.22
2023-05-16T17:55:41.138Z,2.90
2023-05-16T17:58:27.437Z,2.85
2023-05-16T18:01:13.686Z,3.17
2023-05-16T18:03:59.777Z,4.03
2023-05-16T18:06:46.195Z,3.85
2023-05-16T18:09:31.698Z,3.85
2023-05-16T18:12:17.320Z,5.00
2023-05-16T18:15:03.927Z,3.90
2023-05-16T18:17:49.615Z,4.00
2023-05-16T18:20:35.573Z,3.53
2023-05-16T18:23:21.459Z,3.50
2023-05-16T18:26:07.280Z,3.80
2023-05-16T18:28:52.840Z,3.42
2023-05-16T18:31:41.280Z,3.83
2023-05-16T18:34:27.082Z,10.02
2023-05-16T18:37:13.946Z,4.03
2023-05-16T18:39:59.629Z,3.50
2023-05-16T18:42:44.879Z,4.00
2023-05-16T18:45:30.756Z,3.80
2023-05-16T18:48:16.606Z,3.83
2023-05-16T18:51:02.203Z,3.40
2023-05-16T18:53:48.491Z,3.83
2023-05-16T18:56:33.987Z,3.28
2023-05-16T18:59:20.031Z,3.70
2023-05-16T19:02:05.752Z,3.47
2023-05-16T19:04:52.357Z,3.65
2023-05-16T19:07:38.526Z,3.58
2023-05-16T19:10:25.367Z,3.97
2023-05-16T19:13:10.729Z,4.18
2023-05-16T19:15:56.044Z,3.53
2023-05-16T19:18:42.416Z,3.70
2023-05-16T19:21:28.301Z,3.72
2023-05-16T19:24:13.628Z,3.65
2023-05-16T19:26:59.161Z,4.28
2023-05-16T19:29:45.076Z,4.10
2023-05-16T19:32:30.423Z,3.90
2023-05-16T19:35:16.233Z,3.78
2023-05-16T19:38:02.681Z,3.70
2023-05-16T19:40:48.015Z,4.05
2023-05-16T19:43:34.353Z,3.70
2023-05-16T19:46:19.748Z,3.80
2023-05-16T19:49:07.271Z,3.85
2023-05-16T19:51:52.538Z,3.65
2023-05-16T19:54:40.993Z,3.45
2023-05-16T19:57:26.340Z,4.30
2023-05-16T20:00:13.122Z,3.50
2023-05-16T20:02:58.510Z,3.65
2023-05-16T20:05:44.380Z,4.13
2023-05-16T20:08:30.640Z,4.22
2023-05-16T20:11:16.129Z,3.78
2023-05-16T20:14:02.020Z,4.90
2023-05-16T20:16:47.518Z,4.00
2023-05-16T20:19:33.365Z,7.00
2023-05-16T20:22:22.386Z,9.93
2023-05-16T20:25:10.529Z,9.50
2023-05-16T20:27:56.513Z,14.82
2023-05-16T20:30:42.193Z,12.73
2023-05-16T20:33:30.713Z,14.65
2023-05-16T20:36:16.514Z,8.20
2023-05-16T20:39:01.988Z,5.80
2023-05-16T20:41:47.346Z,6.30
2023-05-16T20:44:34.000Z,6.03
2023-05-16T20:47:19.865Z,6.75
2023-05-16T20:50:06.224Z,5.75
2023-05-16T20:52:52.014Z,5.43
2023-05-16T20:55:37.456Z,4.82
2023-05-16T20:58:22.957Z,5.22
2023-05-16T21:01:09.420Z,4.13
2023-05-16T21:03:55.064Z,3.95
2023-05-16T21:06:40.384Z,3.67
2023-05-16T21:09:25.960Z,3.72
2023-05-16T21:12:11.607Z,3.80
2023-05-16T21:14:57.508Z,3.92
2023-05-16T21:17:43.722Z,4.32
2023-05-16T21:20:30.121Z,4.35
2023-05-16T21:23:15.897Z,3.65
2023-05-16T21:26:01.223Z,4.32
2023-05-16T21:31:36.640Z,5.18
2023-05-16T21:34:21.966Z,4.55
2023-05-16T21:37:08.466Z,4.53
2023-05-16T21:39:55.001Z,4.10
2023-05-16T21:42:40.722Z,4.07
2023-05-16T21:45:26.391Z,4.53
2023-05-16T21:48:12.636Z,4.40
2023-05-16T21:50:57.850Z,3.67
2023-05-16T21:53:43.329Z,4.45
2023-05-16T21:56:29.602Z,4.07
2023-05-16T21:59:15.464Z,4.57
2023-05-16T22:02:00.879Z,4.45
2023-05-16T22:04:46.552Z,3.90
2023-05-16T22:07:32.115Z,4.63
2023-05-16T22:10:18.599Z,4.30
2023-05-16T22:13:04.321Z,4.03
2023-05-16T22:16:03.246Z,3.85
2023-05-16T22:18:50.134Z,4.25
2023-05-16T22:21:36.092Z,4.47
2023-05-16T22:24:21.568Z,4.47
2023-05-16T22:27:06.999Z,4.00
2023-05-16T22:29:52.318Z,4.30
2023-05-16T22:32:37.744Z,4.85
2023-05-16T22:35:23.761Z,4.13
2023-05-16T22:38:09.600Z,4.40
2023-05-16T22:40:55.496Z,4.38
2023-05-16T22:43:41.554Z,3.88
2023-05-16T22:46:27.050Z,4.10
2023-05-16T22:49:12.481Z,4.45
2023-05-16T22:51:57.804Z,3.95
2023-05-16T22:54:43.161Z,4.00
2023-05-16T22:57:28.682Z,3.88
2023-05-16T23:00:14.279Z,3.83
2023-05-16T23:03:00.035Z,4.80
2023-05-16T23:05:45.706Z,4.43
2023-05-16T23:08:31.421Z,4.07
2023-05-16T23:11:16.811Z,4.40
2023-05-16T23:14:02.213Z,4.10
2023-05-16T23:16:49.130Z,4.47
2023-05-16T23:19:34.534Z,4.22
2023-05-16T23:22:20.416Z,4.10
2023-05-16T23:25:06.563Z,4.18
2023-05-16T23:27:52.115Z,4.07
2023-05-16T23:30:37.956Z,4.20
2023-05-16T23:33:23.458Z,4.30
2023-05-16T23:36:09.294Z,4.43
2023-05-16T23:38:54.860Z,3.97
2023-05-16T23:41:40.432Z,4.00
2023-05-16T23:44:25.858Z,4.13
2023-05-16T23:47:11.765Z,3.55
2023-05-16T23:49:57.119Z,4.10
2023-05-16T23:52:42.959Z,4.10
2023-05-16T23:55:28.651Z,3.90
2023-05-16T23:58:14.372Z,3.80
